チャーチル空港の過去48時間の天気

チャーチル空港 (Churchill)

現在時刻: 2/20 12:05 CST (2/20 18:05 UTC) 以下の時間は現地時間です。

過去48時間のMETAR気象情報
時間 風向 風速(m/s) 視程 気温(℃) 湿度(%) 気圧(hPa) 天気現象
20 11:00 5 10km以上 -14 72 1006.1
20 10:00 4 10km以上 -17 77 1007.4
20 09:00 3 10km以上 -19 84 1009
20 08:00 南南西 3 10km以上 -19 84 1009.3
20 07:00 南西 2 10km以上 -18 84 1010.2
20 06:00 西 2 10km以上 -18 84 1010.7
20 05:00 西北西 3 10km以上 -18 84 1011.3 弱い雪
20 04:00 西北西 3 10km以上 -16 78 1011.8 弱い雪
20 03:00 西北西 5 10km以上 -15 78 1012.2 弱い雪
20 02:00 西北西 5 10km以上 -15 78 1012.6 弱い雪
20 01:00 西北西 7 10km以上 -14 72 1012.4 弱い雪
20 00:00 西北西 7 10km以上 -14 72 1012.7 弱い雪
19 23:00 西北西 8 10km以上 -14 72 1013 弱い雪
19 22:19 西 7 10km以上 -14 66 1013.3 弱い雪
19 22:00 西 7 10km以上 -14 66 1013.2
19 21:00 西 8 10km以上 -14 60 1013.9
19 20:00 西 7 10km以上 -15 60 1014.8
19 19:00 西南西 6 10km以上 -17 60 1015.4
19 18:00 西南西 7 10km以上 -17 60 1016.2
19 17:00 南西 6 10km以上 -17 60 1017.1
19 16:00 西南西 7 10km以上 -15 51 1018.4
19 15:00 南西 6 10km以上 -16 46 1020.1
19 14:00 西南西 6 10km以上 -17 46 1021.5
19 13:00 西 5 10km以上 -18 45 1022.5
19 12:00 西 7 10km以上 -20 49 1023.8
19 11:00 西 7 10km以上 -22 58 1024.3
19 10:00 西 7 10km以上 -25 63 1024.9
19 09:00 西 7 10km以上 -26 63 1025.6
19 08:00 西 5 10km以上 -26 63 1025.5
19 07:00 西 6 10km以上 -27 63 1025.5
19 06:00 西北西 5 10km以上 -27 63 1025.3
19 05:00 西北西 5 10km以上 -27 69 1025.2
19 04:00 西北西 7 10km以上 -26 63 1024.9
19 03:00 西北西 9 10km以上 -26 69 1024.6
19 02:00 北西 9 10km以上 -26 63 1024.5
19 01:00 北西 7 10km以上 -27 69 1024.5
19 00:00 北西 10 10km以上 -27 69 1023.9 細氷
18 23:00 西北西 8 10km以上 -28 75 1024 細氷
18 22:00 西北西 7 10km以上 -28 69 1023.9 細氷
18 21:00 西北西 7 10km以上 -28 69 1024.1 細氷
18 20:00 西北西 7 10km以上 -28 69 1024.3 細氷 高い地吹雪
18 19:00 北西 10 8050m -27 69 1024.3 細氷 高い地吹雪
18 18:43 北西 9 6450m -27 69 1024.4 細氷 高い地吹雪
18 18:15 北西 9 4850m -27 76 1024.3 弱い雪 高い地吹雪
18 18:00 西北西 10 2400m -27 76 1024.3 細氷 高い地吹雪
18 17:42 北西 9 1200m -26 76 1024.1 細氷 高い地吹雪
18 17:00 北西 12 800m -26 76 1023.6 細氷 高い地吹雪
18 16:30 北西 11 800m -26 76 1023.5 細氷 高い地吹雪
18 16:00 北西 13 600m -26 76 1022.9 細氷 高い地吹雪
18 15:00 北西 11 600m -26 69 1022.5 細氷 高い地吹雪
18 14:00 北西 10 400m -27 76 1021.7 細氷 強い高い地吹雪
18 13:23 北西 12 400m -27 76 1021.3 細氷 強い高い地吹雪
18 13:00 北西 11 600m -27 76 1021.1 細氷 高い地吹雪
18 12:29 北西 12 600m -27 76 1020.8 細氷 高い地吹雪
18 12:07 北西 9 800m -27 76 1020.6 細氷 高い地吹雪
CYYQ 201700Z 19009KT 15SM BKN250 BKN270 M14/M18 A2970 RMK CS5CI2 SLP061
CYYQ 201600Z 18008KT 15SM FEW160 BKN250 M17/M20 A2973 RMK AC2CI4 PRESFR SLP074
CYYQ 201500Z 18005KT 15SM BKN120 BKN250 M19/M21 A2978 RMK AC5CI2 SLP090
CYYQ 201400Z 21005KT 15SM FEW080 SCT160 BKN250 M19/M21 A2979 RMK AC2AC2CI3 SLP093
CYYQ 201300Z 23004KT 15SM BKN100 M18/M20 A2982 RMK AS7 SLP102
CYYQ 201200Z 26003KT 15SM FEW150 M18/M20 A2983 RMK AC2 SLP107
CYYQ 201100Z 29006KT 15SM -SN SCT022 M18/M20 A2985 RMK SC5 SLP113
CYYQ 201000Z 30006KT 15SM -SN BKN022 M16/M19 A2986 RMK SC6 SLP118
CYYQ 200900Z 30009G15KT 15SM -SN OVC022 M15/M18 A2988 RMK SC8 SLP122
CYYQ 200800Z 30010KT 15SM -SN OVC022 M15/M18 A2989 RMK SC8 SLP126
CYYQ 200700Z 30013KT 15SM -SN BKN020 OVC028 M14/M18 A2988 RMK SC6SC2 SLP124
CYYQ 200600Z 30014G19KT 15SM -SN BKN028 OVC042 M14/M18 A2989 RMK SC6SC2 SLP127
CYYQ 200500Z 30015KT 15SM -SN FEW026 OVC042 M14/M18 A2990 RMK SC2SC6 SLP130
CYYQ 200419Z 27013G18KT 15SM -SN OVC048 M14/M19 A2991 RMK SC8 SLP133
CYYQ 200400Z 27013KT 15SM OVC050 M14/M19 A2990 RMK SC8 SLP132
CYYQ 200300Z 27016G24KT 15SM OVC050 M14/M20 A2992 RMK SC8 SLP139
CYYQ 200200Z 26014G20KT 15SM OVC050 M15/M21 A2995 RMK SC8 SLP148
CYYQ 200100Z 24012G20KT 15SM BKN055 M17/M23 A2997 RMK SC5 SLP154
CYYQ 200000Z 24013G21KT 15SM SCT250 M17/M23 A2999 RMK CI3 SLP162
CYYQ 192300Z 23012G17KT 15SM SCT250 M17/M23 A3002 RMK CI3 SLP171
CYYQ 192200Z 24013G18KT 15SM FEW250 M15/M23 A3006 RMK CI2 PRESFR SLP184
CYYQ 192100Z 23012G17KT 15SM FEW250 M16/M25 A3011 RMK CI2 SLP201
CYYQ 192000Z 24012G18KT 15SM FEW250 M17/M26 A3015 RMK CI2 SLP215
CYYQ 191900Z 26010KT 15SM FEW250 M18/M27 A3018 RMK CI1 SLP225
CYYQ 191800Z 26014KT 15SM FEW250 M20/M28 A3021 RMK CI2 SLP238
CYYQ 191700Z 26014KT 15SM SCT250 M22/M28 A3023 RMK CI3 SLP243
CYYQ 191600Z 28013KT 15SM BKN250 M25/M30 A3025 RMK CI5 SLP249
CYYQ 191500Z 28013KT 15SM SCT250 M26/M31 A3027 RMK CI3 SLP256
CYYQ 191400Z 28009KT 15SM FEW040 FEW250 M26/M31 A3027 RMK SC1CI1 CI TR SLP255
CYYQ 191300Z 28011KT 15SM SKC M27/M32 A3027 RMK SLP255
CYYQ 191200Z 29009KT 15SM SKC M27/M32 A3026 RMK SLP253
CYYQ 191100Z 29010KT 15SM SKC M27/M31 A3026 RMK SLP252
CYYQ 191000Z 30014KT 15SM SKC M26/M31 A3025 RMK SLP249
CYYQ 190900Z 30017G22KT 15SM SKC M26/M30 A3024 RMK SLP246
CYYQ 190800Z 31018KT 15SM SKC M26/M31 A3024 RMK SLP245
CYYQ 190700Z 31013G20KT 15SM SKC M27/M31 A3024 RMK SLP245
CYYQ 190600Z 31019G25KT 15SM IC SKC M27/M31 A3022 RMK SLP239
CYYQ 190500Z 30015KT 15SM IC SKC M28/M31 A3022 RMK SLP240
CYYQ 190400Z 30014KT 15SM IC SKC M28/M32 A3022 RMK SLP239
CYYQ 190300Z 30013KT 15SM IC SKC M28/M32 A3022 RMK SLP241
CYYQ 190200Z 29014KT 6SM IC BLSN SKC M28/M32 A3023 RMK SLP243
CYYQ 190100Z 31019G25KT 5SM IC BLSN SKC M27/M31 A3023 RMK BLSN4 SLP243
CYYQ 190043Z 31018G25KT 4SM IC BLSN SKC M27/M31 A3023 RMK BLSN3 SLP244
CYYQ 190015Z 31018G25KT 3SM -SN BLSN OVC013 M27/M30 A3023 RMK SC8 SLP243
CYYQ 190000Z 30019KT 1 1/2SM IC BLSN OVC013 M27/M30 A3023 RMK SC8 SLP243
CYYQ 182342Z 31018G28KT 3/4SM IC BLSN OVC020 M26/M29 A3022 RMK BLSN7SC1 SLP241
CYYQ 182300Z 31023G30KT 1/2SM IC BLSN VV013 M26/M29 A3021 RMK BLSN8 SLP236
CYYQ 182230Z 32021G28KT 1/2SM IC BLSN VV012 M26/M29 A3021 RMK BLSN8 SLP235
CYYQ 182200Z 32025G30KT 3/8SM IC BLSN VV011 M26/M29 A3019 RMK BLSN8 SLP229
CYYQ 182100Z 31021G27KT 3/8SM IC BLSN VV011 M26/M30 A3018 RMK BLSN8 SLP225
CYYQ 182000Z 31020G29KT 1/4SM IC +BLSN VV010 M27/M30 A3015 RMK BLSN8 SLP217
CYYQ 181923Z 32023G29KT 1/4SM IC +BLSN VV009 M27/M30 A3014 RMK BLSN8 SLP213
CYYQ 181900Z 32021G29KT 3/8SM IC BLSN VV011 M27/M30 A3013 RMK BLSN8 SLP211
CYYQ 181829Z 32023G28KT 3/8SM IC BLSN VV011 M27/M30 A3013 RMK BLSN8 SLP208
CYYQ 181807Z 31018G24KT 1/2SM IC BLSN VV011 M27/M30 A3012 RMK BLSN8 SLP206